Flight Track Log - Related Links

Times and Time Zones

All times are in EDT time to prevent confusion due to time zone crossing. See the UAL1129 flight status page for this flight to view local times or setup timezone preferences in your user account.

Time Position Orientation Groundspeed Altitude Reporting Facility
EDT Latitude Longitude Course Direction KTS MPH feet Rate Location/Type
Sat 06:20:00 AM 26.3277 -82.0353 230° Southwest  Level FlightAware Approximate
Sat 06:20:16 AM 26.4628 -81.7294 301° West 225 259 5,400  Level Miami Center
Sat 06:21:00 AM 26.2572 -82.1293 230° Southwest  Level FlightAware Approximate
Sat 06:21:16 AM 26.4206 -81.8042 238° Southwest 248 285 9,000  Level Miami Center
Sat 06:22:00 AM 26.1867 -82.2233 230° Southwest  Level FlightAware Approximate
Sat 06:22:16 AM 26.3783 -81.8836 239° Southwest 284 327 11,200  Level Miami Center
Sat 06:23:00 AM 26.1235 -82.3187 230° Southwest  Level FlightAware Approximate
Sat 06:23:16 AM 26.3767 -81.9856 269° West 332 382 14,000  Level Miami Center
Sat 06:24:00 AM 26.1377 -82.4199 301° West  Level FlightAware Approximate
Sat 06:24:16 AM 26.4208 -82.0942 294° West 363 418 16,300  Level Miami Center
Sat 06:25:00 AM 26.1962 -82.5286 301° West  Level FlightAware Approximate
Sat 06:25:16 AM 26.4625 -82.2119 292° West 385 443 18,500  Level Miami Center
Sat 06:26:16 AM 26.5106 -82.3278 295° West 406 467 21,300 2,450 Climbing Miami Center
Sat 06:27:16 AM 26.5539 -82.4458 292° West 411 473 23,400 2,100 Climbing Miami Center
Sat 06:28:16 AM 26.5994 -82.5664 293° West 417 480 25,500 1,850 Climbing Miami Center
Sat 06:29:16 AM 26.6444 -82.6917 292° West 424 488 27,100 1,600 Climbing Miami Center
Sat 06:30:16 AM 26.6936 -82.8172 294° West 429 494 28,700 1,400 Climbing Miami Center
Sat 06:31:16 AM 26.7403 -82.9475 292° West 443 510 29,900 1,400 Climbing Miami Center
Sat 06:32:16 AM 26.7892 -83.0778 293° West 450 518 31,500 1,800 Climbing Miami Center
Sat 06:33:16 AM 26.8378 -83.2061 293° West 456 525 33,500 1,700 Climbing Miami Center
Sat 06:34:16 AM 26.8822 -83.3317 292° West 451 519 34,900 1,300 Climbing Miami Center
Sat 06:35:16 AM 26.9308 -83.4578 293° West 445 512 36,100 1,150 Climbing Miami Center
Sat 06:36:16 AM 26.9811 -83.5933 293° West 433 498 37,200 900 Climbing Miami Center
Sat 06:37:16 AM 27.0250 -83.7194 291° West 433 498 37,900 400 Climbing Miami Center
Sat 06:38:16 AM 27.0692 -83.8431 292° West 433 498 38,000 50 Climbing Miami Center
Sat 06:39:16 AM 27.1214 -83.9697 295° West 438 504 38,000  Level Miami Center
Sat 06:40:16 AM 27.1653 -84.0961 291° West 438 504 38,000  Level Miami Center
Sat 06:41:51 AM 27.2389 -84.2994 292° West 442 509 38,000 -39 Level Jacksonville Center
Sat 06:42:51 AM 27.2833 -84.4236 292° West 437 503 37,900  Descending Jacksonville Center
Sat 06:43:51 AM 27.3297 -84.5506 292° West 437 503 38,000 50 Climbing Jacksonville Center
Sat 06:44:51 AM 27.3719 -84.6728 291° West 432 497 38,000 -50 Level Jacksonville Center
Sat 06:45:51 AM 27.4225 -84.7975 295° West 432 497 37,900  Descending Jacksonville Center
Sat 06:46:51 AM 27.4603 -84.9197 289° West 432 497 38,000  Climbing Jacksonville Center
Sat 06:47:51 AM 27.5061 -85.0444 293° West 432 497 37,900  Descending Jacksonville Center
Sat 06:48:51 AM 27.5478 -85.1672 291° West 432 497 38,000 50 Climbing Jacksonville Center
Sat 06:49:51 AM 27.5914 -85.2922 292° West 426 490 38,000 -50 Level Jacksonville Center
Sat 06:50:51 AM 27.6350 -85.4172 292° West 438 504 37,900  Descending Jacksonville Center
Sat 06:51:51 AM 27.6803 -85.5425 292° West 433 498 38,000 50 Climbing Jacksonville Center
Sat 06:52:51 AM 27.7236 -85.6678 291° West 438 504 38,000  Level Jacksonville Center
Sat 06:53:51 AM 27.7647 -85.7908 291° West 425 489 38,000 -50 Level Jacksonville Center
Sat 06:54:51 AM 27.8078 -85.9142 292° West 425 489 37,900  Descending Jacksonville Center
Sat 06:55:51 AM 27.8508 -86.0350 292° West 425 489 38,000 50 Climbing Jacksonville Center
Sat 06:56:51 AM 27.8933 -86.1656 290° West 418 481 38,000  Level Jacksonville Center
Sat 06:57:51 AM 27.9364 -86.2797 293° West 418 481 38,000 -50 Level Jacksonville Center
Sat 06:58:51 AM 27.9808 -86.4103 291° West 423 487 37,900 -50 Descending Jacksonville Center
Sat 06:59:51 AM 28.0194 -86.5269 291° West 417 480 37,900  Level Jacksonville Center
Sat 07:00:51 AM 28.0639 -86.6508 292° West 420 483 37,900  Level Jacksonville Center
Sat 07:01:51 AM 28.1039 -86.7769 290° West 417 480 37,900  Level Jacksonville Center
Sat 07:02:51 AM 28.1458 -86.9008 291° West 424 488 37,900  Level Jacksonville Center
Sat 07:03:51 AM 28.1897 -87.0297 291° West 430 495 37,900 50 Level Jacksonville Center
Sat 07:04:51 AM 28.2317 -87.1539 291° West 422 486 38,000 50 Climbing Jacksonville Center
Sat 07:05:51 AM 28.2733 -87.2781 291° West 422 486 38,000 -50 Level Jacksonville Center
Sat 07:06:51 AM 28.3150 -87.4025 291° West 424 488 37,900  Descending Jacksonville Center
Sat 07:07:51 AM 28.3525 -87.5222 290° West 393 452 38,000 41 Climbing Jacksonville Center
Sat 07:09:16 AM 28.4100 -87.6933 291° West 424 488 38,000  Level Houston Center
Sat 07:10:17 AM 28.4519 -87.8200 291° West 427 491 38,000 -50 Level Houston Center
Sat 07:11:17 AM 28.4928 -87.9428 291° West 419 482 37,900  Descending Houston Center
Sat 07:12:18 AM 28.5325 -88.0667 290° West 419 482 38,000  Climbing Houston Center
Sat 07:13:18 AM 28.5683 -88.1806 290° West 421 484 37,900  Descending Houston Center
Sat 07:14:19 AM 28.6178 -88.3306 291° West 423 487 38,000 50 Climbing Houston Center
Sat 07:15:19 AM 28.6592 -88.4564 291° West 424 488 38,000 -50 Level Houston Center
Sat 07:16:20 AM 28.6942 -88.5853 287° West 426 490 37,900  Descending Houston Center
Sat 07:17:20 AM 28.7214 -88.7167 283° West 426 490 38,000 50 Climbing Houston Center
Sat 07:18:21 AM 28.7492 -88.8492 283° West 429 494 38,000  Level Houston Center
Sat 07:19:21 AM 28.7772 -88.9825 284° West 433 498 38,000 -50 Level Houston Center
Sat 07:20:22 AM 28.8050 -89.1164 283° West 434 499 37,900 -50 Descending Houston Center
Sat 07:21:22 AM 28.8322 -89.2500 283° West 434 499 37,900 50 Level Houston Center
Sat 07:22:23 AM 28.8611 -89.3842 284° West 436 502 38,000  Climbing Houston Center
Sat 07:23:23 AM 28.8875 -89.5197 283° West 436 502 37,900  Descending Houston Center
Sat 07:24:24 AM 28.9161 -89.6556 284° West 440 506 38,000  Climbing Houston Center
Sat 07:25:25 AM 28.9433 -89.7919 283° West 441 507 37,900  Descending Houston Center
Sat 07:26:25 AM 28.9708 -89.9264 283° West 436 502 38,000 50 Climbing Houston Center
Sat 07:27:26 AM 28.9978 -90.0619 283° West 437 503 38,000 -50 Level Houston Center
Sat 07:28:26 AM 29.0256 -90.1964 283° West 436 502 37,900  Descending Houston Center
Sat 07:29:27 AM 29.0522 -90.3294 283° West 432 497 38,000 49 Climbing Houston Center
Sat 07:30:28 AM 29.0786 -90.4636 283° West 432 497 38,000 -50 Level Houston Center
Sat 07:31:28 AM 29.1047 -90.5989 282° West 435 501 37,900  Descending Houston Center
Sat 07:32:29 AM 29.1306 -90.7311 283° West 430 495 38,000 49 Climbing Houston Center
Sat 07:33:30 AM 29.1561 -90.8642 282° West 429 494 38,000  Level Houston Center
Sat 07:34:30 AM 29.1819 -90.9986 282° West 431 496 38,000  Level Houston Center
Sat 07:35:31 AM 29.2072 -91.1322 282° West 430 495 38,000  Level Houston Center
Sat 07:36:32 AM 29.2339 -91.2664 283° West 431 496 38,000  Level Houston Center
Sat 07:37:32 AM 29.2586 -91.4019 282° West 434 499 38,000  Level Houston Center
Sat 07:38:33 AM 29.2844 -91.5356 283° West 430 495 38,000 -50 Level Houston Center
Sat 07:39:33 AM 29.3100 -91.6708 282° West 433 498 37,900 -50 Descending Houston Center
Sat 07:40:34 AM 29.3431 -91.8103 285° West 435 501 37,900 49 Level Houston Center
Sat 07:41:35 AM 29.3883 -91.9411 292° West 441 507 38,000 50 Climbing Houston Center
Sat 07:42:35 AM 29.4303 -92.0750 290° West 446 513 38,000  Level Houston Center
Sat 07:43:36 AM 29.4736 -92.2075 291° West 444 511 38,000 -49 Level Houston Center
Sat 07:44:37 AM 29.5256 -92.3647 291° West 439 505 37,900  Descending Houston Center
Sat 07:45:38 AM 29.5569 -92.4994 285° West 440 506 38,000  Climbing Houston Center
Sat 07:46:38 AM 29.5542 -92.6358 269° West 427 491 37,900 -50 Descending Houston Center
Sat 07:47:39 AM 29.5508 -92.7731 268° West 430 495 37,900  Level Houston Center
Sat 07:48:40 AM 29.5472 -92.9122 268° West 435 501 37,900 -1,041 Level Houston Center
Sat 07:49:40 AM 29.5431 -93.0500 268° West 431 496 35,800 -2,479 Descending Houston Center
Sat 07:50:41 AM 29.5397 -93.1878 268° West 430 495 32,900 -2,754 Descending Houston Center
Sat 07:51:42 AM 29.5356 -93.3269 268° West 435 501 30,200 -2,459 Descending Houston Center
Sat 07:52:43 AM 29.5308 -93.4647 268° West 432 497 27,900 -2,213 Descending Houston Center
Sat 07:53:44 AM 29.5267 -93.5947 268° West 414 476 25,700 -2,132 Descending Houston Center
Sat 07:54:44 AM 29.5228 -93.7219 268° West 401 461 23,600 -2,083 Descending Houston Center
Sat 07:55:45 AM 29.5186 -93.8453 268° West 390 449 21,500 -2,016 Descending Houston Center
Sat 07:56:46 AM 29.5189 -93.9642 270° West 377 434 19,500 -1,967 Descending Houston Center
Sat 07:57:47 AM 29.5239 -94.0817 273° West 369 425 17,500 -2,016 Descending Houston Center
Sat 07:58:48 AM 29.5281 -94.1983 272° West 361 415 15,400 -2,033 Descending Houston Center
Sat 07:59:48 AM 29.5317 -94.3106 272° West 355 409 13,400 -1,686 Descending Houston Center
Sat 08:00:49 AM 29.5617 -94.4117 289° West 337 388 12,000 -1,475 Descending Houston Center
Sat 08:01:50 AM 29.6008 -94.5033 296° West 324 373 10,400 -1,672 Descending Houston Center
Sat 08:02:51 AM 29.6367 -94.5894 296° West 306 352 8,600 -1,895 Descending Houston Center
Sat 08:03:25 AM 29.6711 -94.6472 304° West 291 335 7,400 -1,753 Descending Houston Center
Sat 08:04:20 AM 29.7269 -94.7003 320° Northwest 285 328 6,000 -1,432 Descending Houston Center
Sat 08:04:53 AM 29.7561 -94.7336 315° West 287 330 5,300 -1,343 Descending Houston Center
Sat 08:05:27 AM 29.7861 -94.7700 314° West 279 321 4,500 -821 Descending Houston Center
Sat 08:06:28 AM 29.8406 -94.8353 314° West 277 319 4,000 -248 Descending Houston Center
Sat 08:07:28 AM 29.8950 -94.8983 315° West 274 315 4,000 -99 Level Houston Center
Sat 08:08:29 AM 29.9436 -94.9672 309° West 262 302 3,800 -492 Descending Houston Center
Sat 08:09:30 AM 29.9569 -95.0428 282° West 231 266 3,000 -885 Descending Houston Center
Sat 08:10:31 AM 29.9719 -95.1131 284° West 226 260 2,000 -516 Descending Houston Center
Sat 08:11:38 AM 29.9772 -95.1922 274° West 221 254 1,900 -496 Descending Houston Center
Sat 08:12:32 AM 29.9761 -95.2503 269° West 191 220 1,000 -629 Descending Houston Center
Sat 08:14:01 AM 29.9783 -95.3353 272° West 200 230 400 -404 Descending Houston Center

Login

Don't have an account? Register now (free) for customized features, flight alerts, and more!